MSC Giovanna — 3FRB9 — position and weather

sailwx.info

Track history (hours):
 
Tides and Currents Weather Stations Pressure Air Temp Water Temp Dewpoint Dewpoint Depression Visibility Wind Speed Wind Dir Waves Ship Positions

MSC Giovanna

Last reported at 2015-Jun-22 09:11 UTC. Time now 2015-Jul-01 23:15 UTC.
Position N 37°25' E 025°55'.
Warning: this ship's position is 9 days out of date.

Length 178 m; draft 9.9 m.

Type: Ship (hazmat cat A). MMSI: 357702000.

Date/timePositionNaut miles runAvg speedWind from/ knotsBaromVisibWave heightAir tempDewpointWater temp
2015-Jun-22 09:11N 37°25' E 025°55'914.4
2015-Jun-22 08:31N 37°34' E 025°53'240 5.9
2015-Jun-20 15:33N 40°44' E 029°01'1514.6
2015-Jun-20 14:33N 40°44' E 029°21'3 0.3
2015-Jun-20 04:27N 40°46' E 029°18'2 2.5
2015-Jun-20 03:33N 40°45' E 029°15'  
2015-Jun-16 14:33N 44°31' E 037°37'1313.1
2015-Jun-16 13:34N 44°39' E 037°50'5 4.8
2015-Jun-16 12:33N 44°44' E 037°47'0 0.0
2015-Jun-16 11:32N 44°44' E 037°47'0 0.0
2015-Jun-16 10:29N 44°44' E 037°47'0 0.0
2015-Jun-16 09:32N 44°44' E 037°47'0 0.0
2015-Jun-16 08:32N 44°44' E 037°47'0 0.0
2015-Jun-16 07:32N 44°44' E 037°47'0 0.0
2015-Jun-16 06:32N 44°44' E 037°47'0 0.0
2015-Jun-16 05:31N 44°44' E 037°47'0 0.0
2015-Jun-16 04:31N 44°44' E 037°47'0 0.0
2015-Jun-16 03:31N 44°44' E 037°47'0 0.0
2015-Jun-16 02:31N 44°44' E 037°47'0 0.0
2015-Jun-16 01:31N 44°44' E 037°47'0 0.0
2015-Jun-16 00:31N 44°44' E 037°47'0 0.0
2015-Jun-15 23:31N 44°44' E 037°47'0 0.0
2015-Jun-15 22:31N 44°44' E 037°47'0 0.0
2015-Jun-15 21:31N 44°44' E 037°47'0 0.0
2015-Jun-15 20:31N 44°44' E 037°47'0 0.0
2015-Jun-15 19:33N 44°44' E 037°47'0 0.0
2015-Jun-15 18:31N 44°44' E 037°47'0 0.0
2015-Jun-15 17:31N 44°44' E 037°47'0 0.0
2015-Jun-15 16:33N 44°44' E 037°47'0 0.0
2015-Jun-15 15:30N 44°44' E 037°47'0 0.0
2015-Jun-15 14:33N 44°44' E 037°47'0 0.0
2015-Jun-15 13:32N 44°44' E 037°47'0 0.0
2015-Jun-15 12:31N 44°44' E 037°47'0 0.0
2015-Jun-15 11:33N 44°44' E 037°47'0 0.0
2015-Jun-15 10:33N 44°44' E 037°47'6 6.5
2015-Jun-15 09:34N 44°38' E 037°51'10 9.4
2015-Jun-15 08:31N 44°29' E 037°46'6 4.8
2015-Jun-15 07:13N 44°25' E 037°40'4 0.2
2015-Jun-14 13:05N 44°26' E 037°46'1 0.2
2015-Jun-14 09:13N 44°26' E 037°46'6 1.4
2015-Jun-14 05:13N 44°28' E 037°40'2 0.7
2015-Jun-14 02:15N 44°27' E 037°42'5 0.4
2015-Jun-13 13:29N 44°29' E 037°49'0 0.3
2015-Jun-13 12:33N 44°29' E 037°49'0 0.2
2015-Jun-13 11:32N 44°28' E 037°50'0 0.1
2015-Jun-13 10:18N 44°28' E 037°50'0 0.3
2015-Jun-13 09:15N 44°28' E 037°49'0 0.5
2015-Jun-13 08:22N 44°29' E 037°49'1 0.5
2015-Jun-13 06:30N 44°29' E 037°48'0 0.0
2015-Jun-13 05:21N 44°29' E 037°48'0 0.0
2015-Jun-13 04:33N 44°29' E 037°48'0 0.3
2015-Jun-13 03:34N 44°29' E 037°48'0 0.0
2015-Jun-13 02:33N 44°29' E 037°48'1 0.3
2015-Jun-12 23:10N 44°30' E 037°50'0 0.2
2015-Jun-12 20:29N 44°30' E 037°50'0 0.3
2015-Jun-12 19:14N 44°30' E 037°50'0 0.3
2015-Jun-12 18:32N 44°31' E 037°51'0 0.3
2015-Jun-12 17:19N 44°31' E 037°51'0 0.3
2015-Jun-12 16:32N 44°31' E 037°51'0 0.3
2015-Jun-12 15:33N 44°31' E 037°51'0 0.0
2015-Jun-12 14:33N 44°31' E 037°51'0 0.2
2015-Jun-12 13:34N 44°31' E 037°52'0 0.3
2015-Jun-12 12:32N 44°31' E 037°51'0 0.4
2015-Jun-12 11:33N 44°31' E 037°52'0 0.1
2015-Jun-12 10:33N 44°31' E 037°52'0 0.1
2015-Jun-12 09:33N 44°31' E 037°52'  
Track history (hours):
 
Tides and Currents Weather Stations Pressure Air Temp Water Temp Dewpoint Dewpoint Depression Visibility Wind Speed Wind Dir Waves Ship Positions

MSC Giovanna

Last reported at 2015-Jun-22 09:11 UTC. Time now 2015-Jul-01 23:15 UTC.
Position N 37°25' E 025°55'.
Warning: this ship's position is 9 days out of date.

Length 178 m; draft 9.9 m.

Type: Ship (hazmat cat A). MMSI: 357702000.

Date/timePositionNaut miles runAvg speedWind from/ knotsBaromVisibWave heightAir tempDewpointWater temp
2015-Jun-22 09:11N 37°25' E 025°55'914.4
2015-Jun-22 08:31N 37°34' E 025°53'240 5.9
2015-Jun-20 15:33N 40°44' E 029°01'1514.6
2015-Jun-20 14:33N 40°44' E 029°21'3 0.3
2015-Jun-20 04:27N 40°46' E 029°18'2 2.5
2015-Jun-20 03:33N 40°45' E 029°15'  
2015-Jun-16 14:33N 44°31' E 037°37'1313.1
2015-Jun-16 13:34N 44°39' E 037°50'5 4.8
2015-Jun-16 12:33N 44°44' E 037°47'0 0.0
2015-Jun-16 11:32N 44°44' E 037°47'0 0.0
2015-Jun-16 10:29N 44°44' E 037°47'0 0.0
2015-Jun-16 09:32N 44°44' E 037°47'0 0.0
2015-Jun-16 08:32N 44°44' E 037°47'0 0.0
2015-Jun-16 07:32N 44°44' E 037°47'0 0.0
2015-Jun-16 06:32N 44°44' E 037°47'0 0.0
2015-Jun-16 05:31N 44°44' E 037°47'0 0.0
2015-Jun-16 04:31N 44°44' E 037°47'0 0.0
2015-Jun-16 03:31N 44°44' E 037°47'0 0.0
2015-Jun-16 02:31N 44°44' E 037°47'0 0.0
2015-Jun-16 01:31N 44°44' E 037°47'0 0.0
2015-Jun-16 00:31N 44°44' E 037°47'0 0.0
2015-Jun-15 23:31N 44°44' E 037°47'0 0.0
2015-Jun-15 22:31N 44°44' E 037°47'0 0.0
2015-Jun-15 21:31N 44°44' E 037°47'0 0.0
2015-Jun-15 20:31N 44°44' E 037°47'0 0.0
2015-Jun-15 19:33N 44°44' E 037°47'0 0.0
2015-Jun-15 18:31N 44°44' E 037°47'0 0.0
2015-Jun-15 17:31N 44°44' E 037°47'0 0.0
2015-Jun-15 16:33N 44°44' E 037°47'0 0.0
2015-Jun-15 15:30N 44°44' E 037°47'0 0.0
2015-Jun-15 14:33N 44°44' E 037°47'0 0.0
2015-Jun-15 13:32N 44°44' E 037°47'0 0.0
2015-Jun-15 12:31N 44°44' E 037°47'0 0.0
2015-Jun-15 11:33N 44°44' E 037°47'0 0.0
2015-Jun-15 10:33N 44°44' E 037°47'6 6.5
2015-Jun-15 09:34N 44°38' E 037°51'10 9.4
2015-Jun-15 08:31N 44°29' E 037°46'6 4.8
2015-Jun-15 07:13N 44°25' E 037°40'4 0.2
2015-Jun-14 13:05N 44°26' E 037°46'1 0.2
2015-Jun-14 09:13N 44°26' E 037°46'6 1.4
2015-Jun-14 05:13N 44°28' E 037°40'2 0.7
2015-Jun-14 02:15N 44°27' E 037°42'5 0.4
2015-Jun-13 13:29N 44°29' E 037°49'0 0.3
2015-Jun-13 12:33N 44°29' E 037°49'0 0.2
2015-Jun-13 11:32N 44°28' E 037°50'0 0.1
2015-Jun-13 10:18N 44°28' E 037°50'0 0.3
2015-Jun-13 09:15N 44°28' E 037°49'0 0.5
2015-Jun-13 08:22N 44°29' E 037°49'1 0.5
2015-Jun-13 06:30N 44°29' E 037°48'0 0.0
2015-Jun-13 05:21N 44°29' E 037°48'0 0.0
2015-Jun-13 04:33N 44°29' E 037°48'0 0.3
2015-Jun-13 03:34N 44°29' E 037°48'0 0.0
2015-Jun-13 02:33N 44°29' E 037°48'1 0.3
2015-Jun-12 23:10N 44°30' E 037°50'0 0.2
2015-Jun-12 20:29N 44°30' E 037°50'0 0.3
2015-Jun-12 19:14N 44°30' E 037°50'0 0.3
2015-Jun-12 18:32N 44°31' E 037°51'0 0.3
2015-Jun-12 17:19N 44°31' E 037°51'0 0.3
2015-Jun-12 16:32N 44°31' E 037°51'0 0.3
2015-Jun-12 15:33N 44°31' E 037°51'0 0.0
2015-Jun-12 14:33N 44°31' E 037°51'0 0.2
2015-Jun-12 13:34N 44°31' E 037°52'0 0.3
2015-Jun-12 12:32N 44°31' E 037°51'0 0.4
2015-Jun-12 11:33N 44°31' E 037°52'0 0.1
2015-Jun-12 10:33N 44°31' E 037°52'0 0.1
2015-Jun-12 09:33N 44°31' E 037°52'  

Dump ship's entire track history